createdAt,value
2022-11-05T00:02:35.145Z,12.50
2022-11-05T00:05:21.368Z,11.17
2022-11-05T00:08:09.413Z,13.20
2022-11-05T00:10:39.709Z,12.57
2022-11-05T00:13:26.220Z,13.33
2022-11-05T00:16:11.920Z,11.53
2022-11-05T00:18:40.502Z,12.97
2022-11-05T00:21:29.004Z,11.43
2022-11-05T00:24:17.252Z,10.60
2022-11-05T00:26:49.076Z,12.70
2022-11-05T00:29:17.668Z,12.00
2022-11-05T00:31:46.091Z,10.33
2022-11-05T00:34:14.526Z,9.30
2022-11-05T00:36:42.945Z,9.20
2022-11-05T00:39:11.500Z,8.20
2022-11-05T00:41:39.910Z,8.20
2022-11-05T00:44:27.043Z,8.37
2022-11-05T00:47:15.517Z,7.50
2022-11-05T00:49:42.951Z,8.03
2022-11-05T00:52:25.698Z,6.30
2022-11-05T00:54:54.158Z,8.13
2022-11-05T00:57:22.625Z,7.20
2022-11-05T00:59:52.598Z,6.80
2022-11-05T01:02:21.079Z,7.60
2022-11-05T01:04:49.596Z,7.53
2022-11-05T01:07:18.055Z,6.93
2022-11-05T01:09:46.474Z,6.80
2022-11-05T01:12:14.910Z,6.10
2022-11-05T01:14:43.444Z,7.33
2022-11-05T01:17:13.305Z,6.77
2022-11-05T01:19:41.715Z,6.87
2022-11-05T01:22:10.145Z,6.33
2022-11-05T01:24:38.615Z,5.90
2022-11-05T01:27:07.054Z,5.90
2022-11-05T01:29:35.437Z,7.73
2022-11-05T01:32:03.897Z,6.77
2022-11-05T01:34:33.756Z,6.33
2022-11-05T01:37:02.141Z,5.70
2022-11-05T01:39:30.714Z,5.50
2022-11-05T01:41:59.733Z,6.93
2022-11-05T01:44:56.927Z,5.90
2022-11-05T01:47:36.022Z,6.37
2022-11-05T01:50:08.425Z,5.93
2022-11-05T01:52:37.447Z,5.87
2022-11-05T01:55:06.444Z,5.87
2022-11-05T01:57:34.862Z,6.10
2022-11-05T02:00:03.736Z,6.03
2022-11-05T02:02:32.242Z,5.90
2022-11-05T02:05:01.678Z,5.93
2022-11-05T02:07:31.477Z,5.67
2022-11-05T02:10:02.416Z,5.37
2022-11-05T02:12:30.985Z,5.80
2022-11-05T02:14:59.528Z,6.10
2022-11-05T02:17:35.416Z,5.60
2022-11-05T02:20:23.161Z,6.03
2022-11-05T02:23:33.702Z,5.40
2022-11-05T02:26:36.845Z,6.77
2022-11-05T02:29:40.017Z,5.90
2022-11-05T02:32:12.803Z,5.60
2022-11-05T02:34:45.086Z,7.13
2022-11-05T02:37:15.614Z,6.47
2022-11-05T02:39:47.278Z,6.30
2022-11-05T02:42:21.410Z,6.80
2022-11-05T02:44:53.613Z,6.60
2022-11-05T02:47:26.404Z,6.30
2022-11-05T02:49:58.661Z,6.83
2022-11-05T02:52:29.598Z,7.43
2022-11-05T02:54:59.685Z,6.63
2022-11-05T02:57:29.702Z,7.20
2022-11-05T03:00:05.478Z,6.90
2022-11-05T03:02:35.411Z,6.73
2022-11-05T03:05:04.031Z,6.93
2022-11-05T03:07:40.541Z,7.60
2022-11-05T03:10:29.850Z,7.73
2022-11-05T03:13:05.634Z,8.10
2022-11-05T03:15:44.134Z,7.90
2022-11-05T03:18:16.206Z,7.43
2022-11-05T03:20:47.951Z,8.37
2022-11-05T03:23:19.533Z,7.90
2022-11-05T03:25:49.058Z,8.43
2022-11-05T03:28:17.866Z,9.03
2022-11-05T03:30:46.296Z,8.40
2022-11-05T03:33:18.361Z,9.40
2022-11-05T03:35:47.755Z,8.10
2022-11-05T03:38:18.437Z,8.33
2022-11-05T03:40:46.825Z,9.10
2022-11-05T03:43:15.264Z,7.93
2022-11-05T03:45:45.040Z,7.23
2022-11-05T03:48:14.911Z,7.47
2022-11-05T03:50:46.094Z,7.40
2022-11-05T03:53:16.389Z,8.00
2022-11-05T03:55:51.204Z,8.13
2022-11-05T03:58:21.046Z,7.37
2022-11-05T04:00:49.936Z,8.10
2022-11-05T04:03:19.716Z,7.87
2022-11-05T04:06:08.318Z,8.00
2022-11-05T04:08:54.515Z,7.83
2022-11-05T04:11:40.238Z,7.10
2022-11-05T04:14:08.620Z,7.57
2022-11-05T04:16:54.728Z,8.00
2022-11-05T04:19:38.378Z,8.67
2022-11-05T04:22:24.480Z,7.93
2022-11-05T04:24:52.918Z,8.23
2022-11-05T04:27:21.345Z,6.53
2022-11-05T04:30:07.358Z,7.00
2022-11-05T04:32:35.738Z,6.80
2022-11-05T04:35:05.879Z,6.60
2022-11-05T04:37:34.346Z,6.37
2022-11-05T04:40:02.813Z,6.60
2022-11-05T04:42:31.214Z,7.17
2022-11-05T04:44:59.644Z,7.00
2022-11-05T04:47:28.110Z,6.40
2022-11-05T04:49:56.594Z,5.50
2022-11-05T04:52:26.356Z,6.00
2022-11-05T04:54:54.742Z,6.43
2022-11-05T04:57:23.158Z,6.17
2022-11-05T04:59:52.075Z,6.90
2022-11-05T05:02:20.542Z,5.30
2022-11-05T05:04:49.030Z,6.40
2022-11-05T05:07:17.457Z,5.87
2022-11-05T05:09:47.198Z,6.17
2022-11-05T05:12:15.648Z,6.13
2022-11-05T05:14:44.101Z,6.20
2022-11-05T05:17:12.529Z,6.60
2022-11-05T05:19:58.293Z,5.73
2022-11-05T05:22:26.726Z,6.13
2022-11-05T05:24:56.691Z,5.50
2022-11-05T05:27:26.029Z,6.50
2022-11-05T05:29:54.442Z,5.20
2022-11-05T05:32:22.905Z,6.10
2022-11-05T05:34:51.285Z,5.83
2022-11-05T05:37:19.693Z,6.10
2022-11-05T05:39:48.547Z,6.17
2022-11-05T05:42:18.300Z,5.90
2022-11-05T05:44:46.680Z,5.90
2022-11-05T05:47:15.280Z,5.83
2022-11-05T05:49:43.657Z,5.60
2022-11-05T05:52:12.077Z,5.77
2022-11-05T05:54:42.950Z,5.60
2022-11-05T05:57:11.595Z,6.00
2022-11-05T05:59:41.378Z,5.60
2022-11-05T06:02:10.870Z,5.07
2022-11-05T06:04:39.392Z,5.40
2022-11-05T06:07:09.075Z,4.77
2022-11-05T06:09:37.562Z,5.30
2022-11-05T06:12:06.478Z,5.20
2022-11-05T06:14:34.925Z,5.60
2022-11-05T06:17:04.727Z,4.40
2022-11-05T06:19:33.135Z,5.33
2022-11-05T06:22:01.508Z,5.33
2022-11-05T06:24:29.893Z,4.83
2022-11-05T06:26:58.253Z,4.93
2022-11-05T06:29:26.669Z,4.00
2022-11-05T06:32:12.082Z,5.80
2022-11-05T06:34:40.494Z,4.80
2022-11-05T06:37:08.940Z,4.07
2022-11-05T06:39:37.437Z,4.37
2022-11-05T06:42:21.316Z,3.60
2022-11-05T06:44:49.760Z,4.93
2022-11-05T06:47:19.919Z,4.70
2022-11-05T06:49:48.370Z,5.00
2022-11-05T06:52:16.824Z,4.53
2022-11-05T06:54:45.336Z,4.40
2022-11-05T06:57:13.871Z,4.90
2022-11-05T06:59:42.264Z,4.13
2022-11-05T07:02:12.999Z,4.90
2022-11-05T07:04:42.875Z,5.20
2022-11-05T07:07:11.273Z,5.90
2022-11-05T07:09:43.953Z,5.87
2022-11-05T07:12:12.344Z,6.23
2022-11-05T07:14:40.773Z,5.40
2022-11-05T07:17:09.257Z,4.93
2022-11-05T07:19:37.655Z,5.33
2022-11-05T07:22:07.449Z,6.60
2022-11-05T07:24:35.912Z,5.70
2022-11-05T07:27:04.606Z,6.13
2022-11-05T07:29:32.981Z,5.50
2022-11-05T07:32:01.396Z,6.00
2022-11-05T07:34:29.783Z,5.10
2022-11-05T07:36:58.229Z,5.03
2022-11-05T07:39:28.097Z,5.80
2022-11-05T07:41:57.758Z,5.10
2022-11-05T07:44:26.315Z,5.60
2022-11-05T07:46:54.745Z,6.67
2022-11-05T07:49:23.747Z,5.07
2022-11-05T07:51:52.149Z,6.10
2022-11-05T07:54:20.581Z,5.97
2022-11-05T07:56:50.361Z,6.73
2022-11-05T07:59:18.739Z,5.50
2022-11-05T08:01:47.320Z,6.30
2022-11-05T08:04:15.961Z,6.40
2022-11-05T08:06:44.365Z,5.63
2022-11-05T08:09:12.901Z,5.70
2022-11-05T08:11:41.329Z,5.80
2022-11-05T08:14:11.164Z,5.90
2022-11-05T08:16:39.986Z,7.63
2022-11-05T08:19:08.392Z,6.20
2022-11-05T08:21:36.815Z,7.23
2022-11-05T08:24:05.614Z,6.60
2022-11-05T08:26:34.039Z,7.00
2022-11-05T08:29:02.513Z,7.17
2022-11-05T08:31:32.296Z,6.93
2022-11-05T08:34:02.699Z,5.80
2022-11-05T08:36:31.310Z,6.33
2022-11-05T08:38:59.743Z,5.73
2022-11-05T08:41:28.149Z,6.37
2022-11-05T08:43:57.132Z,5.40
2022-11-05T08:46:25.539Z,5.40
2022-11-05T08:48:55.341Z,5.67
2022-11-05T08:51:23.792Z,6.47
2022-11-05T08:53:52.267Z,5.63
2022-11-05T08:56:20.813Z,6.40
2022-11-05T08:58:49.260Z,5.70
2022-11-05T09:01:17.938Z,6.67
2022-11-05T09:03:46.422Z,6.07
2022-11-05T09:06:16.505Z,5.50
2022-11-05T09:08:44.930Z,4.90
2022-11-05T09:11:13.395Z,6.27
2022-11-05T09:13:41.793Z,5.60
2022-11-05T09:16:16.637Z,5.90
2022-11-05T09:18:45.074Z,5.73
2022-11-05T09:21:14.828Z,5.30
2022-11-05T09:23:43.816Z,5.63
2022-11-05T09:26:12.503Z,5.10
2022-11-05T09:28:40.999Z,5.27
2022-11-05T09:31:10.180Z,5.17
2022-11-05T09:33:39.258Z,4.90
2022-11-05T09:36:08.244Z,4.37
2022-11-05T09:38:38.033Z,5.00
2022-11-05T09:41:08.648Z,4.30
2022-11-05T09:43:38.193Z,5.10
2022-11-05T09:46:12.066Z,3.63
2022-11-05T09:48:40.464Z,5.13
2022-11-05T09:51:09.220Z,5.20
2022-11-05T09:53:41.191Z,4.50
2022-11-05T09:56:16.974Z,3.87
2022-11-05T09:58:46.775Z,3.73
2022-11-05T10:01:17.192Z,4.47
2022-11-05T10:03:47.794Z,3.47
2022-11-05T10:06:20.807Z,4.17
2022-11-05T10:08:52.651Z,3.30
2022-11-05T10:11:24.403Z,3.40
2022-11-05T10:13:56.180Z,3.40
2022-11-05T10:16:28.546Z,3.33
2022-11-05T10:18:59.997Z,2.77
2022-11-05T10:21:59.388Z,3.07
2022-11-05T10:24:20.095Z,3.50
2022-11-05T10:26:49.148Z,3.63
2022-11-05T10:29:20.313Z,3.77
2022-11-05T10:31:48.755Z,2.83
2022-11-05T10:34:17.869Z,2.73
2022-11-05T10:36:46.367Z,3.30
2022-11-05T10:39:15.651Z,1.90
2022-11-05T10:41:59.552Z,3.23
2022-11-05T10:44:34.156Z,2.60
2022-11-05T10:47:13.090Z,2.40
2022-11-05T10:49:51.623Z,2.53
2022-11-05T10:52:24.522Z,2.40
2022-11-05T10:54:53.579Z,1.93
2022-11-05T10:57:31.769Z,2.17
2022-11-05T11:00:23.782Z,2.60
2022-11-05T11:02:53.181Z,2.30
2022-11-05T11:05:22.940Z,2.13
2022-11-05T11:08:03.164Z,2.50
2022-11-05T11:10:33.758Z,2.27
2022-11-05T11:13:03.618Z,2.60
2022-11-05T11:15:33.606Z,1.43
2022-11-05T11:18:18.728Z,2.60
2022-11-05T11:20:47.491Z,1.70
2022-11-05T11:23:16.592Z,2.00
2022-11-05T11:25:48.333Z,1.10
2022-11-05T11:28:21.278Z,1.97
2022-11-05T11:30:51.246Z,1.40
2022-11-05T11:33:22.437Z,2.00
2022-11-05T11:35:51.021Z,2.20
2022-11-05T11:38:19.513Z,1.70
2022-11-05T11:40:47.911Z,1.93
2022-11-05T11:43:22.762Z,1.80
2022-11-05T11:45:52.823Z,1.67
2022-11-05T11:48:23.818Z,1.53
2022-11-05T11:50:52.367Z,2.13
2022-11-05T11:53:30.985Z,1.50
2022-11-05T11:56:15.625Z,1.53
2022-11-05T11:58:47.469Z,1.63
2022-11-05T12:01:43.765Z,1.53
2022-11-05T12:04:41.279Z,1.50
2022-11-05T12:07:19.548Z,1.67
2022-11-05T12:10:01.961Z,2.00
2022-11-05T12:12:34.639Z,1.63
2022-11-05T12:15:13.426Z,1.37
2022-11-05T12:17:46.758Z,1.83
2022-11-05T12:20:31.122Z,2.83
2022-11-05T12:23:21.260Z,1.17
2022-11-05T12:25:52.968Z,1.50
2022-11-05T12:29:16.715Z,1.53
2022-11-05T12:31:42.147Z,1.80
2022-11-05T12:34:19.862Z,1.77
2022-11-05T12:37:04.154Z,1.60
2022-11-05T12:39:45.298Z,1.53
2022-11-05T12:42:20.308Z,1.20
2022-11-05T12:45:02.238Z,1.13
2022-11-05T12:47:43.052Z,1.20
2022-11-05T12:50:19.495Z,1.07
2022-11-05T12:53:05.912Z,1.47
2022-11-05T12:55:37.701Z,1.00
2022-11-05T12:58:11.233Z,1.30
2022-11-05T13:00:40.782Z,1.70
2022-11-05T13:03:20.271Z,1.43
2022-11-05T13:05:50.595Z,2.03
2022-11-05T13:08:22.762Z,1.30
2022-11-05T13:10:52.698Z,1.60
2022-11-05T13:13:26.273Z,1.50
2022-11-05T13:15:56.046Z,1.30
2022-11-05T13:18:29.208Z,2.07
2022-11-05T13:20:57.675Z,1.33
2022-11-05T13:23:30.184Z,1.50
2022-11-05T13:26:00.753Z,1.30
2022-11-05T13:28:35.209Z,1.23
2022-11-05T13:31:05.412Z,1.80
2022-11-05T13:33:36.402Z,1.87
2022-11-05T13:36:24.296Z,1.13
2022-11-05T13:39:07.108Z,2.30
2022-11-05T13:42:02.279Z,1.33
2022-11-05T13:45:21.806Z,0.80
2022-11-05T13:48:17.127Z,1.57
2022-11-05T13:51:07.910Z,1.83
2022-11-05T13:53:51.582Z,1.90
2022-11-05T13:56:30.800Z,1.27
2022-11-05T13:59:40.622Z,1.00
2022-11-05T14:02:14.862Z,0.93
2022-11-05T14:04:46.208Z,1.23
2022-11-05T14:07:18.141Z,1.57
2022-11-05T14:09:46.567Z,1.27
2022-11-05T14:12:22.262Z,1.23
2022-11-05T14:14:58.447Z,3.10
2022-11-05T14:17:33.865Z,1.60
2022-11-05T14:20:25.313Z,1.57
2022-11-05T14:22:55.146Z,1.83
2022-11-05T14:26:03.136Z,1.37
2022-11-05T14:28:53.075Z,1.60
2022-11-05T14:32:07.094Z,1.40
2022-11-05T14:34:46.512Z,1.40
2022-11-05T14:37:26.026Z,1.63
2022-11-05T14:39:56.120Z,1.27
2022-11-05T14:42:26.385Z,1.70
2022-11-05T14:45:17.038Z,1.73
2022-11-05T14:47:50.892Z,1.53
2022-11-05T14:50:20.654Z,2.07
2022-11-05T14:52:53.026Z,1.60
2022-11-05T14:55:29.279Z,1.73
2022-11-05T14:58:32.077Z,1.63
2022-11-05T15:01:00.744Z,1.30
2022-11-05T15:03:59.037Z,1.77
2022-11-05T15:06:34.424Z,1.53
2022-11-05T15:09:22.212Z,1.43
2022-11-05T15:12:09.148Z,2.00
2022-11-05T15:14:42.228Z,2.10
2022-11-05T15:17:16.347Z,1.77
2022-11-05T15:19:44.786Z,2.30
2022-11-05T15:22:27.888Z,3.03
2022-11-05T15:24:56.713Z,3.40
2022-11-05T15:27:36.861Z,4.10
2022-11-05T15:30:16.163Z,11.50
2022-11-05T15:32:44.640Z,22.97
2022-11-05T15:35:21.477Z,13.30
2022-11-05T15:37:54.817Z,6.97
2022-11-05T15:40:27.609Z,6.57
2022-11-05T15:43:19.593Z,6.07
2022-11-05T15:46:01.939Z,8.03
2022-11-05T15:48:30.439Z,9.97
2022-11-05T15:50:58.999Z,7.40
2022-11-05T15:56:49.997Z,7.30
2022-11-05T15:59:20.929Z,6.07
2022-11-05T16:01:51.154Z,5.63
2022-11-05T16:04:20.439Z,5.40
2022-11-05T16:06:50.429Z,5.80
2022-11-05T16:09:22.797Z,6.47
2022-11-05T16:11:54.409Z,6.13
2022-11-05T16:14:24.185Z,5.17
2022-11-05T16:16:52.638Z,5.70
2022-11-05T16:19:40.610Z,6.53
2022-11-05T16:22:09.486Z,5.80
2022-11-05T16:24:37.955Z,5.80
2022-11-05T16:27:06.429Z,7.30
2022-11-05T16:29:38.652Z,6.27
2022-11-05T16:32:08.490Z,6.10
2022-11-05T16:34:38.660Z,5.70
2022-11-05T16:37:07.495Z,6.20
2022-11-05T16:39:36.068Z,5.90
2022-11-05T16:42:06.597Z,8.80
2022-11-05T16:44:36.392Z,6.80
2022-11-05T16:47:04.892Z,8.73
2022-11-05T16:49:33.298Z,9.90
2022-11-05T16:52:01.702Z,10.10
2022-11-05T16:54:30.104Z,10.07
2022-11-05T16:56:58.522Z,10.37
2022-11-05T16:59:27.830Z,35.50
2022-11-05T17:01:57.766Z,18.30
2022-11-05T17:04:26.328Z,15.67
2022-11-05T17:06:54.786Z,13.30
2022-11-05T17:09:23.207Z,15.20
2022-11-05T17:11:51.612Z,16.27
2022-11-05T17:14:20.086Z,16.33
2022-11-05T17:16:51.096Z,13.63
2022-11-05T17:19:20.917Z,13.13
2022-11-05T17:21:50.035Z,10.77
2022-11-05T17:24:18.587Z,10.53
2022-11-05T17:26:47.026Z,8.67
2022-11-05T17:29:15.449Z,8.40
2022-11-05T17:31:43.873Z,7.27
2022-11-05T17:34:12.317Z,7.10
2022-11-05T17:36:42.142Z,7.57
2022-11-05T17:39:11.537Z,7.20
2022-11-05T17:41:40.037Z,8.37
2022-11-05T17:44:08.460Z,8.10
2022-11-05T17:46:36.912Z,8.70
2022-11-05T17:49:05.345Z,8.40
2022-11-05T17:51:34.590Z,10.37
2022-11-05T17:54:04.432Z,9.70
2022-11-05T17:56:44.445Z,9.47
2022-11-05T17:59:13.369Z,12.07
2022-11-05T18:01:43.543Z,12.40
2022-11-05T18:04:12.219Z,12.83
2022-11-05T18:06:41.413Z,12.57
2022-11-05T18:09:11.593Z,12.13
2022-11-05T18:11:40.317Z,12.20
2022-11-05T18:14:08.857Z,10.33
2022-11-05T18:16:37.260Z,10.50
2022-11-05T18:19:05.767Z,13.60
2022-11-05T18:21:34.222Z,14.30
2022-11-05T18:24:04.159Z,14.73
2022-11-05T18:26:33.932Z,13.57
2022-11-05T18:29:02.488Z,15.23
2022-11-05T18:31:30.873Z,17.40
2022-11-05T18:33:59.942Z,16.07
2022-11-05T18:36:29.617Z,17.27
2022-11-05T18:38:58.928Z,14.37
2022-11-05T18:41:27.729Z,16.03
2022-11-05T18:44:01.069Z,12.20
2022-11-05T18:46:56.441Z,13.90
2022-11-05T18:49:17.999Z,16.33
2022-11-05T18:51:46.624Z,13.63
2022-11-05T18:54:15.052Z,12.10
2022-11-05T18:56:45.862Z,11.40
2022-11-05T19:02:05.525Z,8.77
2022-11-05T19:04:35.807Z,8.40
2022-11-05T19:07:05.901Z,13.10
2022-11-05T19:09:34.670Z,10.67
2022-11-05T19:12:03.247Z,16.97
2022-11-05T19:14:33.128Z,15.30
2022-11-05T19:17:01.774Z,34.77
2022-11-05T19:19:30.176Z,21.13
2022-11-05T19:21:58.967Z,20.20
2022-11-05T19:24:27.568Z,28.10
2022-11-05T19:26:55.982Z,24.20
2022-11-05T19:29:24.502Z,45.80
2022-11-05T19:31:54.364Z,30.00
2022-11-05T19:34:22.815Z,30.20
2022-11-05T19:36:51.242Z,38.20
2022-11-05T19:39:19.653Z,38.47
2022-11-05T19:41:49.338Z,33.47
2022-11-05T19:44:17.731Z,37.77
2022-11-05T19:46:46.229Z,36.27
2022-11-05T19:49:16.008Z,30.23
2022-11-05T19:51:44.414Z,39.50
2022-11-05T19:54:12.880Z,27.27
2022-11-05T19:56:41.346Z,46.83
2022-11-05T19:59:11.173Z,73.53
2022-11-05T20:01:39.709Z,49.63
2022-11-05T20:04:08.507Z,57.87
2022-11-05T20:06:40.061Z,30.20
2022-11-05T20:09:27.099Z,18.70
2022-11-05T20:11:56.638Z,17.00
2022-11-05T20:14:25.551Z,19.10
2022-11-05T20:16:54.122Z,16.00
2022-11-05T20:19:22.980Z,20.90
2022-11-05T20:21:52.733Z,21.37
2022-11-05T20:24:24.787Z,19.20
2022-11-05T20:26:54.504Z,12.07
2022-11-05T20:29:23.302Z,14.23
2022-11-05T20:31:51.870Z,9.93
2022-11-05T20:34:20.312Z,8.57
2022-11-05T20:36:48.799Z,7.83
2022-11-05T20:39:18.741Z,7.80
2022-11-05T20:41:47.494Z,8.33
2022-11-05T20:44:15.909Z,12.87
2022-11-05T20:46:44.492Z,16.03
2022-11-05T20:49:12.919Z,16.53
2022-11-05T20:51:41.561Z,18.43
2022-11-05T20:54:10.018Z,19.03
2022-11-05T20:56:39.839Z,27.90
2022-11-05T20:59:08.371Z,27.40
2022-11-05T21:01:37.143Z,23.27
2022-11-05T21:04:05.902Z,12.33
2022-11-05T21:06:34.815Z,13.57
2022-11-05T21:09:03.338Z,13.67
2022-11-05T21:11:52.087Z,16.37
2022-11-05T21:14:21.850Z,18.80
2022-11-05T21:16:50.268Z,15.43
2022-11-05T21:19:18.698Z,13.20
2022-11-05T21:21:47.821Z,10.77
2022-11-05T21:24:16.489Z,10.60
2022-11-05T21:26:44.919Z,12.13
2022-11-05T21:29:13.358Z,9.30
2022-11-05T21:31:43.902Z,8.00
2022-11-05T21:34:12.414Z,8.63
2022-11-05T21:36:41.227Z,8.97
2022-11-05T21:39:13.513Z,10.47
2022-11-05T21:41:42.932Z,10.13
2022-11-05T21:44:11.399Z,10.33
2022-11-05T21:46:39.881Z,12.23
2022-11-05T21:49:09.641Z,18.80
2022-11-05T21:51:55.478Z,14.77
2022-11-05T21:54:41.438Z,10.20
2022-11-05T21:57:31.074Z,9.67
2022-11-05T22:00:00.561Z,7.43
2022-11-05T22:02:29.485Z,8.23
2022-11-05T22:05:00.089Z,8.90
2022-11-05T22:07:30.025Z,9.60
2022-11-05T22:09:58.576Z,12.67
2022-11-05T22:12:27.022Z,14.33
2022-11-05T22:14:55.505Z,12.00
2022-11-05T22:17:23.968Z,12.53
2022-11-05T22:19:52.628Z,11.33
2022-11-05T22:22:22.502Z,12.00
2022-11-05T22:24:50.994Z,10.33
2022-11-05T22:27:21.386Z,11.70
2022-11-05T22:29:49.945Z,8.87
2022-11-05T22:32:18.411Z,9.70
2022-11-05T22:34:48.286Z,7.53
2022-11-05T22:37:16.672Z,9.07
2022-11-05T22:39:46.487Z,9.47
2022-11-05T22:42:14.935Z,12.50
2022-11-05T22:44:43.433Z,12.70
2022-11-05T22:47:12.265Z,11.90
2022-11-05T22:49:40.791Z,10.30
2022-11-05T22:52:09.591Z,10.60
2022-11-05T22:54:39.437Z,9.50
2022-11-05T22:57:09.548Z,8.60
2022-11-05T22:59:37.956Z,8.10
2022-11-05T23:02:09.894Z,5.90
2022-11-05T23:04:38.914Z,6.70
2022-11-05T23:07:27.901Z,35.73
2022-11-05T23:10:14.153Z,16.63
2022-11-05T23:12:44.577Z,10.43
2022-11-05T23:15:34.391Z,6.03
2022-11-05T23:18:20.569Z,4.13
2022-11-05T23:21:06.708Z,8.53
2022-11-05T23:23:52.700Z,7.33
2022-11-05T23:26:38.798Z,11.83
2022-11-05T23:29:08.624Z,8.80
2022-11-05T23:31:54.726Z,6.53
2022-11-05T23:34:23.135Z,7.03
2022-11-05T23:37:09.257Z,6.33
2022-11-05T23:39:42.383Z,5.43
2022-11-05T23:42:28.626Z,6.40
2022-11-05T23:45:15.990Z,6.07
2022-11-05T23:48:02.239Z,4.67
2022-11-05T23:50:34.393Z,5.43
2022-11-05T23:53:06.976Z,4.30
2022-11-05T23:55:35.600Z,3.63
2022-11-05T23:58:04.024Z,5.00
